createdAt,value
2023-05-14T00:01:10.093Z,1.90
2023-05-14T00:03:41.312Z,2.10
2023-05-14T00:06:12.375Z,2.10
2023-05-14T00:08:43.099Z,1.70
2023-05-14T00:11:13.833Z,2.30
2023-05-14T00:13:44.632Z,1.80
2023-05-14T00:16:16.095Z,2.20
2023-05-14T00:18:46.898Z,1.90
2023-05-14T00:21:17.615Z,2.30
2023-05-14T00:23:48.569Z,2.00
2023-05-14T00:26:20.427Z,2.10
2023-05-14T00:28:51.221Z,1.90
2023-05-14T00:31:21.939Z,2.00
2023-05-14T00:33:52.616Z,2.10
2023-05-14T00:36:23.385Z,2.10
2023-05-14T00:38:54.265Z,2.20
2023-05-14T00:41:25.299Z,1.60
2023-05-14T00:43:56.457Z,2.10
2023-05-14T00:46:27.297Z,1.80
2023-05-14T00:48:58.558Z,2.40
2023-05-14T00:51:29.342Z,2.20
2023-05-14T00:54:00.274Z,1.80
2023-05-14T00:56:31.234Z,2.10
2023-05-14T00:59:01.904Z,2.40
2023-05-14T01:01:32.761Z,2.20
2023-05-14T01:04:04.070Z,2.10
2023-05-14T01:06:41.546Z,2.00
2023-05-14T01:09:15.855Z,2.00
2023-05-14T01:11:53.370Z,2.10
2023-05-14T01:14:29.931Z,1.90
2023-05-14T01:17:03.746Z,2.10
2023-05-14T01:19:39.158Z,2.10
2023-05-14T01:22:10.032Z,2.30
2023-05-14T01:24:41.598Z,2.00
2023-05-14T01:27:17.317Z,2.80
2023-05-14T01:29:54.729Z,2.20
2023-05-14T01:32:26.741Z,2.10
2023-05-14T01:35:01.516Z,2.20
2023-05-14T01:37:33.726Z,2.00
2023-05-14T01:40:06.290Z,2.30
2023-05-14T01:42:37.910Z,2.00
2023-05-14T01:45:10.574Z,1.90
2023-05-14T01:47:41.393Z,2.30
2023-05-14T01:50:13.519Z,2.10
2023-05-14T01:52:44.700Z,2.30
2023-05-14T01:55:15.967Z,1.80
2023-05-14T01:57:47.055Z,2.10
2023-05-14T02:00:18.409Z,2.10
2023-05-14T02:02:49.074Z,2.10
2023-05-14T02:05:20.438Z,2.40
2023-05-14T02:07:51.400Z,2.10
2023-05-14T02:10:22.178Z,2.00
2023-05-14T02:12:53.321Z,1.80
2023-05-14T02:15:24.190Z,2.30
2023-05-14T02:17:55.028Z,2.40
2023-05-14T02:20:26.005Z,2.00
2023-05-14T02:22:57.019Z,2.30
2023-05-14T02:25:27.799Z,2.20
2023-05-14T02:27:58.407Z,2.10
2023-05-14T02:30:30.153Z,2.20
2023-05-14T02:33:01.402Z,1.90
2023-05-14T02:35:32.183Z,2.40
2023-05-14T02:38:02.878Z,2.10
2023-05-14T02:40:33.515Z,2.00
2023-05-14T02:43:04.359Z,2.40
2023-05-14T02:45:35.021Z,1.90
2023-05-14T02:48:06.197Z,1.90
2023-05-14T02:50:37.497Z,2.00
2023-05-14T02:53:08.944Z,2.20
2023-05-14T02:55:39.591Z,2.20
2023-05-14T02:58:10.627Z,2.00
2023-05-14T03:00:41.257Z,1.90
2023-05-14T03:03:12.168Z,2.10
2023-05-14T03:05:43.413Z,1.90
2023-05-14T03:08:14.356Z,2.00
2023-05-14T03:10:45.137Z,2.50
2023-05-14T03:13:17.942Z,1.90
2023-05-14T03:15:48.816Z,1.80
2023-05-14T03:18:19.498Z,2.20
2023-05-14T03:20:50.203Z,2.30
2023-05-14T03:23:21.297Z,2.20
2023-05-14T03:25:52.675Z,2.00
2023-05-14T03:28:23.576Z,2.10
2023-05-14T03:30:55.015Z,2.30
2023-05-14T03:33:25.787Z,2.10
2023-05-14T03:35:56.590Z,2.00
2023-05-14T03:38:27.255Z,2.30
2023-05-14T03:40:58.008Z,2.10
2023-05-14T03:43:28.726Z,2.60
2023-05-14T03:46:00.190Z,2.30
2023-05-14T03:48:30.834Z,2.10
2023-05-14T03:51:01.878Z,2.10
2023-05-14T03:53:32.833Z,2.30
2023-05-14T03:56:03.691Z,2.10
2023-05-14T03:58:34.436Z,2.50
2023-05-14T04:01:05.333Z,2.20
2023-05-14T04:03:36.584Z,2.00
2023-05-14T04:06:08.127Z,1.90
2023-05-14T04:08:39.197Z,1.90
2023-05-14T04:11:10.028Z,2.20
2023-05-14T04:13:40.711Z,2.50
2023-05-14T04:16:11.491Z,2.10
2023-05-14T04:18:42.178Z,2.30
2023-05-14T04:21:13.199Z,2.10
2023-05-14T04:23:43.918Z,2.50
2023-05-14T04:26:14.590Z,2.20
2023-05-14T04:28:45.809Z,2.20
2023-05-14T04:31:16.544Z,2.60
2023-05-14T04:33:47.480Z,1.80
2023-05-14T04:36:18.777Z,2.30
2023-05-14T04:38:49.568Z,2.00
2023-05-14T04:41:20.235Z,2.00
2023-05-14T04:43:52.413Z,2.10
2023-05-14T04:46:23.290Z,1.90
2023-05-14T04:48:54.155Z,2.30
2023-05-14T04:51:24.888Z,1.80
2023-05-14T04:53:55.584Z,2.10
2023-05-14T04:56:26.370Z,2.10
2023-05-14T04:58:57.115Z,2.00
2023-05-14T05:01:27.901Z,2.40
2023-05-14T05:03:58.799Z,2.00
2023-05-14T05:06:29.542Z,2.90
2023-05-14T05:09:01.954Z,2.50
2023-05-14T05:11:32.959Z,2.00
2023-05-14T05:14:03.669Z,1.70
2023-05-14T05:16:34.733Z,2.20
2023-05-14T05:19:05.601Z,2.20
2023-05-14T05:21:37.142Z,1.80
2023-05-14T05:24:08.848Z,1.80
2023-05-14T05:26:39.840Z,2.10
2023-05-14T05:29:10.617Z,2.10
2023-05-14T05:31:41.643Z,1.80
2023-05-14T05:34:12.475Z,2.40
2023-05-14T05:36:43.204Z,2.20
2023-05-14T05:39:13.837Z,1.70
2023-05-14T05:41:44.992Z,2.20
2023-05-14T05:44:15.875Z,1.80
2023-05-14T05:46:46.806Z,1.90
2023-05-14T05:49:17.611Z,1.60
2023-05-14T05:51:48.327Z,1.90
2023-05-14T05:54:19.313Z,2.00
2023-05-14T05:56:50.049Z,2.20
2023-05-14T05:59:20.741Z,2.00
2023-05-14T06:01:51.559Z,2.30
2023-05-14T06:04:22.381Z,2.30
2023-05-14T06:06:53.192Z,1.80
2023-05-14T06:09:23.797Z,2.00
2023-05-14T06:11:54.770Z,1.90
2023-05-14T06:14:25.469Z,2.00
2023-05-14T06:16:56.533Z,2.30
2023-05-14T06:19:27.630Z,2.10
2023-05-14T06:21:58.637Z,1.70
2023-05-14T06:24:39.357Z,1.90
2023-05-14T06:27:11.306Z,1.90
2023-05-14T06:29:42.234Z,1.80
2023-05-14T06:32:15.722Z,2.10
2023-05-14T06:34:46.743Z,2.10
2023-05-14T06:37:17.611Z,2.40
2023-05-14T06:39:50.493Z,2.50
2023-05-14T06:42:21.770Z,2.10
2023-05-14T06:44:52.537Z,1.80
2023-05-14T06:47:23.628Z,2.40
2023-05-14T06:49:55.926Z,2.10
2023-05-14T06:52:27.277Z,2.20
2023-05-14T06:54:58.174Z,2.80
2023-05-14T06:57:29.034Z,2.60
2023-05-14T07:00:02.885Z,2.90
2023-05-14T07:02:34.448Z,2.50
2023-05-14T07:05:05.588Z,2.40
2023-05-14T07:07:36.518Z,2.40
2023-05-14T07:10:09.349Z,2.20
2023-05-14T07:12:40.598Z,2.40
2023-05-14T07:15:13.140Z,2.30
2023-05-14T07:17:46.781Z,2.10
2023-05-14T07:20:17.759Z,2.30
2023-05-14T07:22:48.758Z,3.80
2023-05-14T07:25:19.901Z,2.30
2023-05-14T07:27:50.796Z,2.20
2023-05-14T07:30:21.826Z,2.70
2023-05-14T07:32:53.122Z,2.70
2023-05-14T07:35:25.589Z,2.20
2023-05-14T07:37:56.568Z,2.20
2023-05-14T07:40:27.582Z,2.20
2023-05-14T07:42:58.522Z,2.30
2023-05-14T07:45:29.365Z,2.70
2023-05-14T07:48:00.175Z,2.00
2023-05-14T07:50:31.851Z,2.40
2023-05-14T07:53:02.850Z,2.20
2023-05-14T07:55:34.140Z,2.20
2023-05-14T07:58:04.967Z,2.00
2023-05-14T08:00:36.263Z,3.90
2023-05-14T08:03:07.154Z,2.30
2023-05-14T08:05:38.319Z,2.80
2023-05-14T08:08:10.572Z,3.90
2023-05-14T08:10:41.463Z,3.30
2023-05-14T08:13:12.499Z,3.60
2023-05-14T08:15:43.579Z,3.70
2023-05-14T08:18:14.483Z,4.40
2023-05-14T08:20:45.605Z,4.20
2023-05-14T08:23:16.441Z,3.70
2023-05-14T08:25:47.588Z,3.90
2023-05-14T08:28:18.442Z,3.90
2023-05-14T08:30:49.317Z,4.10
2023-05-14T08:33:20.105Z,3.70
2023-05-14T08:35:51.360Z,3.70
2023-05-14T08:38:22.451Z,3.70
2023-05-14T08:40:58.141Z,3.10
2023-05-14T08:43:32.299Z,3.30
2023-05-14T08:46:06.518Z,3.70
2023-05-14T08:48:38.109Z,4.30
2023-05-14T08:51:10.333Z,3.70
2023-05-14T08:53:42.080Z,3.20
2023-05-14T08:56:14.034Z,3.50
2023-05-14T08:58:44.887Z,2.80
2023-05-14T09:01:15.783Z,3.30
2023-05-14T09:03:47.434Z,3.10
2023-05-14T09:06:19.473Z,3.20
2023-05-14T09:08:50.810Z,3.50
2023-05-14T09:11:21.688Z,3.10
2023-05-14T09:13:52.510Z,3.30
2023-05-14T09:16:24.124Z,3.10
2023-05-14T09:18:55.660Z,3.20
2023-05-14T09:21:26.768Z,3.30
2023-05-14T09:23:59.793Z,2.80
2023-05-14T09:26:32.907Z,3.10
2023-05-14T09:29:04.403Z,3.10
2023-05-14T09:31:37.437Z,2.80
2023-05-14T09:34:08.309Z,3.20
2023-05-14T09:36:39.474Z,3.00
2023-05-14T09:39:10.232Z,2.70
2023-05-14T09:41:40.949Z,3.10
2023-05-14T09:44:11.958Z,2.80
2023-05-14T09:46:42.942Z,2.60
2023-05-14T09:49:14.178Z,2.70
2023-05-14T09:51:45.865Z,2.70
2023-05-14T09:54:17.737Z,2.70
2023-05-14T09:56:48.774Z,2.70
2023-05-14T09:59:19.805Z,2.70
2023-05-14T10:01:52.512Z,2.90
2023-05-14T10:04:24.302Z,2.40
2023-05-14T10:06:57.251Z,2.60
2023-05-14T10:09:31.083Z,2.50
2023-05-14T10:14:40.066Z,2.20
2023-05-14T10:17:18.619Z,2.90
2023-05-14T10:19:53.783Z,2.80
2023-05-14T10:22:28.689Z,2.40
2023-05-14T10:25:00.535Z,2.30
2023-05-14T10:27:32.046Z,2.30
2023-05-14T10:30:06.912Z,2.30
2023-05-14T10:32:38.116Z,2.40
2023-05-14T10:35:20.811Z,2.90
2023-05-14T10:37:53.802Z,2.30
2023-05-14T10:40:26.547Z,2.60
2023-05-14T10:43:00.377Z,2.50
2023-05-14T10:45:33.853Z,2.40
2023-05-14T10:48:05.225Z,2.10
2023-05-14T10:50:36.289Z,2.50
2023-05-14T10:53:11.782Z,2.40
2023-05-14T10:55:43.579Z,2.30
2023-05-14T10:58:18.264Z,2.70
2023-05-14T11:00:51.076Z,2.50
2023-05-14T11:03:22.764Z,2.10
2023-05-14T11:05:56.162Z,1.90
2023-05-14T11:08:29.530Z,2.10
2023-05-14T11:11:01.111Z,2.10
2023-05-14T11:13:34.470Z,2.10
2023-05-14T11:16:15.580Z,1.80
2023-05-14T11:19:04.681Z,1.90
2023-05-14T11:21:35.889Z,2.30
2023-05-14T11:24:07.703Z,1.90
2023-05-14T11:26:39.014Z,2.00
2023-05-14T11:29:11.427Z,2.10
2023-05-14T11:31:43.726Z,2.00
2023-05-14T11:34:14.529Z,1.90
2023-05-14T11:36:45.518Z,1.60
2023-05-14T11:39:22.122Z,2.00
2023-05-14T11:41:52.950Z,1.80
2023-05-14T11:44:24.228Z,1.70
2023-05-14T11:46:59.571Z,1.90
2023-05-14T11:49:31.222Z,1.80
2023-05-14T11:52:03.208Z,1.70
2023-05-14T11:54:35.767Z,1.90
2023-05-14T11:57:12.696Z,2.00
2023-05-14T11:59:43.549Z,1.90
2023-05-14T12:02:15.835Z,1.70
2023-05-14T12:04:51.350Z,2.00
2023-05-14T12:07:22.641Z,1.90
2023-05-14T12:09:53.605Z,1.80
2023-05-14T12:12:25.163Z,1.60
2023-05-14T12:14:56.190Z,1.50
2023-05-14T12:17:27.214Z,2.00
2023-05-14T12:19:59.911Z,1.70
2023-05-14T12:22:32.962Z,2.00
2023-05-14T12:25:05.520Z,1.80
2023-05-14T12:27:40.392Z,1.80
2023-05-14T12:30:21.435Z,1.50
2023-05-14T12:32:53.798Z,1.60
2023-05-14T12:35:25.271Z,2.00
2023-05-14T12:37:56.526Z,1.50
2023-05-14T12:40:27.409Z,1.70
2023-05-14T12:42:58.150Z,1.30
2023-05-14T12:45:28.986Z,2.00
2023-05-14T12:48:00.342Z,1.30
2023-05-14T12:50:31.381Z,2.00
2023-05-14T12:53:02.336Z,1.70
2023-05-14T12:55:34.351Z,1.30
2023-05-14T12:58:05.356Z,1.40
2023-05-14T13:00:36.390Z,1.40
2023-05-14T13:03:07.319Z,1.90
2023-05-14T13:05:38.647Z,1.40
2023-05-14T13:08:10.847Z,1.80
2023-05-14T13:10:41.871Z,1.30
2023-05-14T13:13:15.296Z,1.70
2023-05-14T13:15:46.859Z,1.80
2023-05-14T13:18:19.047Z,1.40
2023-05-14T13:20:50.282Z,1.80
2023-05-14T13:23:21.102Z,2.00
2023-05-14T13:25:52.583Z,1.60
2023-05-14T13:28:23.233Z,1.70
2023-05-14T13:31:08.809Z,1.60
2023-05-14T13:33:42.388Z,1.60
2023-05-14T13:36:15.003Z,1.70
2023-05-14T13:38:46.885Z,1.70
2023-05-14T13:41:18.282Z,1.50
2023-05-14T13:43:49.059Z,1.40
2023-05-14T13:46:19.999Z,1.30
2023-05-14T13:48:51.296Z,1.70
2023-05-14T13:51:22.290Z,1.70
2023-05-14T13:56:30.370Z,1.50
2023-05-14T13:59:01.573Z,1.90
2023-05-14T14:01:32.414Z,1.40
2023-05-14T14:04:03.565Z,1.70
2023-05-14T14:06:35.033Z,1.50
2023-05-14T14:09:06.304Z,1.60
2023-05-14T14:11:37.249Z,1.50
2023-05-14T14:14:08.333Z,1.40
2023-05-14T14:16:39.617Z,1.80
2023-05-14T14:19:11.416Z,1.20
2023-05-14T14:21:42.996Z,1.10
2023-05-14T14:24:13.732Z,1.50
2023-05-14T14:26:44.905Z,1.40
2023-05-14T14:29:18.379Z,1.10
2023-05-14T14:31:49.989Z,1.40
2023-05-14T14:34:21.005Z,1.50
2023-05-14T14:36:53.445Z,1.40
2023-05-14T14:39:26.656Z,1.60
2023-05-14T14:41:57.931Z,1.60
2023-05-14T14:44:28.855Z,1.20
2023-05-14T14:47:00.145Z,1.50
2023-05-14T14:49:32.285Z,1.20
2023-05-14T14:52:03.198Z,1.00
2023-05-14T14:54:33.965Z,1.60
2023-05-14T14:57:05.078Z,1.10
2023-05-14T14:59:36.256Z,1.40
2023-05-14T15:02:09.065Z,1.30
2023-05-14T15:04:39.854Z,1.30
2023-05-14T15:07:11.433Z,1.40
2023-05-14T15:09:42.481Z,1.50
2023-05-14T15:12:14.397Z,1.20
2023-05-14T15:14:45.288Z,1.30
2023-05-14T15:17:16.671Z,1.20
2023-05-14T15:19:47.893Z,1.40
2023-05-14T15:22:18.816Z,1.30
2023-05-14T15:24:49.888Z,1.30
2023-05-14T15:27:21.179Z,1.20
2023-05-14T15:29:52.707Z,1.00
2023-05-14T15:32:24.683Z,1.40
2023-05-14T15:34:55.876Z,1.10
2023-05-14T15:37:27.998Z,1.30
2023-05-14T15:39:58.783Z,0.90
2023-05-14T15:42:30.411Z,1.10
2023-05-14T15:45:01.383Z,1.10
2023-05-14T15:47:32.790Z,1.10
2023-05-14T15:50:03.973Z,1.30
2023-05-14T15:52:35.174Z,1.50
2023-05-14T15:55:06.608Z,1.10
2023-05-14T15:57:37.660Z,1.30
2023-05-14T16:00:11.636Z,1.00
2023-05-14T16:02:43.078Z,1.20
2023-05-14T16:05:14.883Z,1.60
2023-05-14T16:07:46.129Z,0.90
2023-05-14T16:10:17.129Z,1.20
2023-05-14T16:12:48.245Z,1.50
2023-05-14T16:15:19.369Z,0.90
2023-05-14T16:17:50.454Z,1.20
2023-05-14T16:20:22.051Z,1.20
2023-05-14T16:22:53.144Z,1.10
2023-05-14T16:25:24.378Z,1.10
2023-05-14T16:27:55.712Z,1.30
2023-05-14T16:30:26.744Z,1.20
2023-05-14T16:32:58.041Z,1.30
2023-05-14T16:35:29.072Z,1.30
2023-05-14T16:38:00.411Z,1.40
2023-05-14T16:40:31.371Z,1.50
2023-05-14T16:43:02.353Z,1.10
2023-05-14T16:45:35.007Z,1.10
2023-05-14T16:48:06.647Z,1.20
2023-05-14T16:50:37.887Z,1.70
2023-05-14T16:53:09.230Z,1.20
2023-05-14T16:55:40.984Z,1.10
2023-05-14T16:58:12.397Z,1.10
2023-05-14T17:00:43.781Z,1.30
2023-05-14T17:03:15.557Z,1.20
2023-05-14T17:05:47.503Z,1.40
2023-05-14T17:08:18.470Z,1.50
2023-05-14T17:10:49.807Z,1.80
2023-05-14T17:13:21.264Z,1.50
2023-05-14T17:15:52.786Z,2.00
2023-05-14T17:18:24.090Z,1.40
2023-05-14T17:20:55.360Z,1.60
2023-05-14T17:23:26.655Z,1.40
2023-05-14T17:25:58.132Z,1.30
2023-05-14T17:28:30.140Z,1.40
2023-05-14T17:31:01.553Z,1.30
2023-05-14T17:33:33.220Z,2.00
2023-05-14T17:36:05.522Z,1.20
2023-05-14T17:38:37.676Z,1.20
2023-05-14T17:41:09.937Z,1.60
2023-05-14T17:43:40.890Z,1.30
2023-05-14T17:46:13.457Z,2.10
2023-05-14T17:48:44.572Z,1.60
2023-05-14T17:51:15.554Z,1.20
2023-05-14T17:53:47.531Z,1.20
2023-05-14T17:56:18.691Z,1.30
2023-05-14T17:58:50.870Z,1.50
2023-05-14T18:01:22.006Z,1.20
2023-05-14T18:03:53.633Z,1.60
2023-05-14T18:06:24.604Z,1.30
2023-05-14T18:08:56.065Z,1.30
2023-05-14T18:11:32.807Z,1.30
2023-05-14T18:14:05.114Z,1.40
2023-05-14T18:16:38.125Z,1.70
2023-05-14T18:19:09.303Z,1.60
2023-05-14T18:21:40.934Z,1.20
2023-05-14T18:24:12.471Z,1.50
2023-05-14T18:26:43.715Z,1.50
2023-05-14T18:29:15.023Z,1.00
2023-05-14T18:31:48.809Z,1.50
2023-05-14T18:34:20.212Z,1.40
2023-05-14T18:36:51.696Z,1.60
2023-05-14T18:39:23.460Z,1.30
2023-05-14T18:41:55.308Z,1.30
2023-05-14T18:44:26.687Z,1.50
2023-05-14T18:46:59.560Z,1.20
2023-05-14T18:49:31.366Z,1.60
2023-05-14T18:52:02.590Z,1.40
2023-05-14T18:54:34.029Z,1.60
2023-05-14T18:57:07.838Z,1.70
2023-05-14T18:59:38.982Z,1.60
2023-05-14T19:02:10.991Z,1.90
2023-05-14T19:04:51.824Z,1.80
2023-05-14T19:07:24.502Z,1.60
2023-05-14T19:09:56.145Z,1.40
2023-05-14T19:12:27.194Z,1.60
2023-05-14T19:14:58.556Z,1.70
2023-05-14T19:17:32.897Z,1.80
2023-05-14T19:20:05.045Z,1.70
2023-05-14T19:22:36.058Z,1.50
2023-05-14T19:25:08.444Z,1.20
2023-05-14T19:27:40.314Z,1.60
2023-05-14T19:30:14.545Z,1.20
2023-05-14T19:32:45.530Z,1.30
2023-05-14T19:35:17.548Z,1.30
2023-05-14T19:37:49.016Z,1.50
2023-05-14T19:40:20.809Z,1.60
2023-05-14T19:42:51.862Z,1.30
2023-05-14T19:45:22.950Z,1.50
2023-05-14T19:47:54.231Z,2.00
2023-05-14T19:50:25.535Z,1.50
2023-05-14T19:52:56.932Z,1.50
2023-05-14T19:55:29.837Z,1.60
2023-05-14T19:58:01.069Z,1.30
2023-05-14T20:00:32.144Z,1.70
2023-05-14T20:03:03.325Z,1.50
2023-05-14T20:05:36.341Z,1.60
2023-05-14T20:08:09.439Z,1.50
2023-05-14T20:10:41.699Z,2.10
2023-05-14T20:13:12.701Z,1.80
2023-05-14T20:15:44.178Z,1.60
2023-05-14T20:18:15.165Z,1.70
2023-05-14T20:20:46.184Z,2.00
2023-05-14T20:23:17.541Z,1.70
2023-05-14T20:25:48.959Z,1.40
2023-05-14T20:28:19.894Z,1.70
2023-05-14T20:30:50.673Z,1.80
2023-05-14T20:33:21.530Z,1.60
2023-05-14T20:35:52.568Z,1.40
2023-05-14T20:38:25.724Z,1.40
2023-05-14T20:40:56.569Z,1.70
2023-05-14T20:43:28.967Z,1.70
2023-05-14T20:46:01.000Z,1.80
2023-05-14T20:48:35.216Z,1.50
2023-05-14T20:51:06.767Z,1.60
2023-05-14T20:53:39.284Z,1.60
2023-05-14T20:56:10.562Z,1.80
2023-05-14T20:58:41.828Z,1.50
2023-05-14T21:01:12.548Z,1.60
2023-05-14T21:03:43.868Z,1.70
2023-05-14T21:06:14.984Z,1.40
2023-05-14T21:08:45.983Z,1.50
2023-05-14T21:11:16.975Z,1.40
2023-05-14T21:13:47.871Z,1.70
2023-05-14T21:16:19.940Z,1.60
2023-05-14T21:18:50.807Z,1.70
2023-05-14T21:21:21.717Z,1.60
2023-05-14T21:23:52.513Z,1.60
2023-05-14T21:26:23.697Z,1.50
2023-05-14T21:28:54.558Z,1.60
2023-05-14T21:31:25.634Z,1.40
2023-05-14T21:33:56.521Z,1.60
2023-05-14T21:36:27.741Z,1.80
2023-05-14T21:38:58.442Z,1.40
2023-05-14T21:41:29.299Z,1.50
2023-05-14T21:44:00.027Z,1.40
2023-05-14T21:46:31.328Z,1.30
2023-05-14T21:49:02.069Z,1.80
2023-05-14T21:51:33.333Z,1.50
2023-05-14T21:54:04.189Z,1.60
2023-05-14T21:56:35.970Z,2.40
2023-05-14T21:59:07.112Z,1.80
2023-05-14T22:01:50.604Z,1.50
2023-05-14T22:04:28.397Z,1.60
2023-05-14T22:06:59.257Z,1.60
2023-05-14T22:09:30.570Z,1.70
2023-05-14T22:12:01.446Z,1.20
2023-05-14T22:14:32.152Z,1.50
2023-05-14T22:17:03.036Z,1.40
2023-05-14T22:19:33.862Z,1.30
2023-05-14T22:22:04.813Z,1.50
2023-05-14T22:24:35.647Z,1.80
2023-05-14T22:27:07.007Z,1.50
2023-05-14T22:29:38.391Z,1.50
2023-05-14T22:32:10.389Z,1.80
2023-05-14T22:34:41.580Z,1.50
2023-05-14T22:37:12.536Z,1.50
2023-05-14T22:39:43.352Z,1.60
2023-05-14T22:42:14.108Z,1.60
2023-05-14T22:44:45.212Z,1.40
2023-05-14T22:47:15.971Z,1.50
2023-05-14T22:49:46.713Z,1.90
2023-05-14T22:52:18.896Z,1.70
2023-05-14T22:54:51.068Z,1.60
2023-05-14T22:57:21.872Z,1.90
2023-05-14T22:59:52.516Z,1.50
2023-05-14T23:02:23.308Z,1.50
2023-05-14T23:04:54.271Z,1.40
2023-05-14T23:07:25.469Z,1.50
2023-05-14T23:09:56.295Z,1.50
2023-05-14T23:12:26.920Z,1.40
2023-05-14T23:14:59.268Z,1.60
2023-05-14T23:17:30.042Z,1.30
2023-05-14T23:20:01.001Z,1.70
2023-05-14T23:22:31.665Z,1.40
2023-05-14T23:25:02.365Z,1.60
2023-05-14T23:27:33.103Z,1.30
2023-05-14T23:30:04.016Z,1.70
2023-05-14T23:32:34.669Z,1.70
2023-05-14T23:35:06.048Z,1.50
2023-05-14T23:37:41.769Z,1.60
2023-05-14T23:40:14.214Z,1.50
2023-05-14T23:42:44.981Z,1.50
2023-05-14T23:45:15.729Z,1.70
2023-05-14T23:47:46.778Z,1.60
2023-05-14T23:50:17.525Z,1.40
2023-05-14T23:52:48.313Z,1.60
2023-05-14T23:55:19.468Z,1.40
2023-05-14T23:57:51.294Z,1.90
